Time;durP1;ratioP1;P1;durP2;ratioP2;P2;SDS_P1;SDS_P2;PMS_P1;PMS_P2;Temp;Humidity;BMP_temperature;BMP_pressure;BME280_temperature;BME280_humidity;BME280_pressure;Samples;Min_cycle;Max_cycle;Signal;HPM_P1;HPM_P2
2022/08/29 00:01:34;;;;;;;9.20;7.10;;;;;;;15.84;93.68;99012.81;1726203;81;21080;-68
2022/08/29 00:04:01;;;;;;;11.05;6.83;;;;;;;15.81;93.47;99018.74;1726129;83;21118;-68
2022/08/29 00:06:28;;;;;;;9.75;7.20;;;;;;;15.77;93.34;99018.14;1726027;83;21060;-68
2022/08/29 00:08:54;;;;;;;12.03;7.03;;;;;;;15.73;93.38;99015.36;1726028;83;21076;-68
2022/08/29 00:11:23;;;;;;;17.75;8.30;;;;;;;15.68;93.64;99016.15;1726311;83;20997;-68
2022/08/29 00:13:49;;;;;;;11.08;8.53;;;;;;;15.65;94.61;99022.07;1726285;83;21021;-68
2022/08/29 00:16:17;;;;;;;11.97;8.38;;;;;;;15.62;95.67;99027.52;1726453;83;21445;-68
2022/08/29 00:18:44;;;;;;;8.93;8.00;;;;;;;15.61;97.03;99029.77;1726193;83;20961;-68
2022/08/29 00:21:11;;;;;;;10.58;8.18;;;;;;;15.61;98.17;99030.61;1726245;83;21096;-68
2022/08/29 00:23:39;;;;;;;11.10;8.43;;;;;;;15.62;99.05;99034.91;1726136;83;21508;-68
2022/08/29 00:26:07;;;;;;;12.68;8.23;;;;;;;15.65;99.83;99031.25;1726178;83;21060;-68
2022/08/29 00:28:34;;;;;;;13.55;8.18;;;;;;;15.66;100.00;99031.61;1726229;83;21418;-68
2022/08/29 00:31:01;;;;;;;9.33;7.10;;;;;;;15.67;100.00;99041.16;1726191;83;21032;-68
2022/08/29 00:33:27;;;;;;;13.05;7.97;;;;;;;15.68;100.00;99038.91;1726246;83;21080;-68
2022/08/29 00:35:54;;;;;;;11.48;7.55;;;;;;;15.69;100.00;99039.27;1726342;83;21441;-68
2022/08/29 00:38:21;;;;;;;11.08;7.55;;;;;;;15.68;100.00;99036.28;1726551;83;21001;-68
2022/08/29 00:40:51;;;;;;;9.10;7.20;;;;;;;15.67;100.00;99035.44;1726207;83;21064;-69
2022/08/29 00:43:23;;;;;;;10.15;7.40;;;;;;;15.66;99.48;99036.39;1726195;83;20974;-68
2022/08/29 00:46:26;;;;;;;13.18;7.87;;;;;;;15.63;99.43;99041.84;1726162;83;21079;-68
2022/08/29 00:48:56;;;;;;;13.40;7.78;;;;;;;15.62;99.95;99029.67;1726456;81;21005;-68
2022/08/29 00:51:22;;;;;;;11.55;8.65;;;;;;;15.63;100.00;99041.84;1728725;83;20973;-68
2022/08/29 00:53:55;;;;;;;9.50;7.20;;;;;;;15.59;100.00;99031.69;1728806;83;21469;-68
2022/08/29 00:56:22;;;;;;;11.65;7.72;;;;;;;15.59;100.00;99031.69;1685143;84;21006;-68
2022/08/29 00:58:56;;;;;;;10.10;7.83;;;;;;;15.60;100.00;99039.89;1693874;84;21141;-68
2022/08/29 01:01:23;;;;;;;14.95;8.75;;;;;;;15.57;99.92;99040.13;1728670;83;20954;-68
2022/08/29 01:03:50;;;;;;;10.18;7.97;;;;;;;15.54;100.00;99037.20;1728796;82;21021;-68
2022/08/29 01:06:17;;;;;;;10.23;8.03;;;;;;;15.55;100.00;99041.52;1728813;83;21449;-68
2022/08/29 01:08:44;;;;;;;10.82;7.80;;;;;;;15.55;100.00;99047.22;1728945;83;21426;-68
2022/08/29 01:13:58;;;;;;;11.40;7.78;;;;;;;15.50;100.00;99039.20;1728683;83;21029;-68
2022/08/29 01:16:25;;;;;;;12.93;8.48;;;;;;;15.50;100.00;99039.20;1700094;83;21009;-68
2022/08/29 01:18:55;;;;;;;10.03;8.55;;;;;;;15.50;100.00;99047.53;1728725;83;20980;-68
2022/08/29 01:22:01;;;;;;;10.82;7.30;;;;;;;15.49;100.00;99045.38;1728817;83;21049;-68
2022/08/29 01:24:44;;;;;;;12.43;7.75;;;;;;;15.48;100.00;99038.45;1728935;83;21103;-68
2022/08/29 01:27:12;;;;;;;9.55;6.70;;;;;;;15.42;100.00;99034.94;1728690;83;21451;-69
2022/08/29 01:29:40;;;;;;;11.18;7.35;;;;;;;15.39;99.91;99037.77;1729067;83;21091;-68
2022/08/29 01:32:06;;;;;;;15.35;8.30;;;;;;;15.36;99.85;99041.92;1728723;83;20969;-68
2022/08/29 01:34:34;;;;;;;13.65;8.43;;;;;;;15.32;100.00;99043.54;1728897;81;20962;-68
2022/08/29 01:37:04;;;;;;;12.70;8.48;;;;;;;15.28;100.00;99044.21;1728732;83;21130;-68
2022/08/29 01:39:33;;;;;;;14.10;7.83;;;;;;;15.28;100.00;99044.21;1699775;83;21068;-68
2022/08/29 01:42:05;;;;;;;9.90;7.65;;;;;;;15.28;100.00;99041.59;1728807;83;20993;-68
2022/08/29 01:44:33;;;;;;;15.00;8.50;;;;;;;15.28;100.00;99045.52;1728959;83;21021;-68
2022/08/29 01:47:00;;;;;;;13.13;8.48;;;;;;;15.28;100.00;99040.28;1700106;83;21028;-68
2022/08/29 01:49:28;;;;;;;10.25;7.30;;;;;;;15.29;100.00;99044.58;1728565;81;21138;-68
2022/08/29 01:51:57;;;;;;;12.13;8.23;;;;;;;15.28;100.00;99040.28;1728634;83;20989;-68
2022/08/29 01:54:23;;;;;;;12.40;8.70;;;;;;;15.27;100.00;99043.84;1729376;83;20965;-69
2022/08/29 01:56:51;;;;;;;10.90;8.23;;;;;;;15.26;100.00;99043.47;1728752;83;21057;-69
2022/08/29 01:59:24;;;;;;;12.43;8.35;;;;;;;15.23;100.00;99039.74;1728713;83;21029;-68
2022/08/29 02:02:07;;;;;;;10.20;8.13;;;;;;;15.24;100.00;99047.13;1728953;83;21545;-68
2022/08/29 02:04:33;;;;;;;;;;;;;;;15.23;100.00;99044.14;1727300;83;21611;-69
2022/08/29 02:07:00;;;;;;;11.73;6.78;;;;;;;15.22;100.00;99041.16;1728708;83;20172;-69
2022/08/29 02:09:29;;;;;;;18.80;7.60;;;;;;;15.15;100.00;99035.52;1728772;83;21045;-69
2022/08/29 02:11:57;;;;;;;14.87;7.42;;;;;;;15.14;99.97;99035.14;1728798;83;21004;-69
2022/08/29 02:14:25;;;;;;;12.35;8.03;;;;;;;15.10;99.69;99035.81;1728693;83;21473;-69
2022/08/29 02:16:51;;;;;;;12.30;7.95;;;;;;;15.10;99.69;99035.81;1728686;81;21001;-69
2022/08/29 02:19:18;;;;;;;13.70;8.60;;;;;;;15.05;99.61;99032.65;1728757;83;20981;-69
2022/08/29 02:21:44;;;;;;;8.40;7.33;;;;;;;15.07;99.53;99037.31;1728719;83;21426;-69
2022/08/29 02:24:11;;;;;;;12.73;7.65;;;;;;;15.05;99.12;99041.81;1728648;83;20997;-69
2022/08/29 02:26:38;;;;;;;8.78;5.72;;;;;;;15.01;99.13;99045.58;1728653;83;21132;-69
2022/08/29 02:29:04;;;;;;;11.00;7.33;;;;;;;14.98;99.22;99048.42;1728857;83;21009;-68
2022/08/29 02:31:34;;;;;;;11.05;7.12;;;;;;;14.93;98.99;99043.95;1728666;83;21194;-68
2022/08/29 02:34:00;;;;;;;9.48;6.42;;;;;;;14.93;98.72;99051.80;1728686;81;21061;-68
2022/08/29 02:36:27;;;;;;;26.60;7.55;;;;;;;14.92;98.42;99054.52;1728668;83;21508;-68
2022/08/29 02:38:53;;;;;;;9.85;6.70;;;;;;;14.88;98.20;99053.88;1728733;83;21189;-69
2022/08/29 02:41:20;;;;;;;11.78;6.58;;;;;;;14.85;98.06;99058.47;1728577;81;21001;-69
2022/08/29 02:43:47;;;;;;;9.53;7.25;;;;;;;14.78;98.17;99056.28;1728622;81;20970;-69
2022/08/29 02:46:16;;;;;;;11.75;8.23;;;;;;;14.75;98.56;99059.09;1728661;83;20993;-69
2022/08/29 02:48:43;;;;;;;10.18;7.83;;;;;;;14.75;98.56;99059.09;1728793;83;21042;-68
2022/08/29 02:51:12;;;;;;;16.60;7.78;;;;;;;14.72;99.07;99057.13;1728499;82;21131;-68
2022/08/29 02:53:39;;;;;;;14.85;8.28;;;;;;;14.72;99.07;99057.13;1727989;81;21012;-75
2022/08/29 02:56:06;;;;;;;17.55;8.68;;;;;;;14.72;99.74;99065.83;1728645;83;20977;-75
2022/08/29 02:58:33;;;;;;;14.68;8.90;;;;;;;14.71;100.00;99065.45;1728635;83;21017;-74
2022/08/29 03:01:00;;;;;;;14.50;7.83;;;;;;;14.71;100.00;99056.77;1728943;83;21515;-74
2022/08/29 03:03:26;;;;;;;18.40;8.85;;;;;;;14.72;100.00;99057.98;1728664;83;21247;-79
2022/08/29 03:05:54;;;;;;;25.20;8.13;;;;;;;14.73;100.00;99057.03;1728696;83;20962;-78
2022/08/29 03:08:23;;;;;;;15.10;8.55;;;;;;;14.72;100.00;99059.28;1728665;83;21021;-75
2022/08/29 03:10:49;;;;;;;8.68;6.58;;;;;;;14.70;100.00;99059.84;1728630;83;21057;-75
2022/08/29 03:13:17;;;;;;;12.18;7.65;;;;;;;14.64;99.93;99076.41;1728802;83;21068;-74
2022/08/29 03:15:44;;;;;;;10.72;7.45;;;;;;;14.64;99.93;99076.41;1728715;83;21738;-74
2022/08/29 03:18:10;;;;;;;13.70;6.70;;;;;;;14.60;99.07;99078.84;1728621;83;21017;-74
2022/08/29 03:20:37;;;;;;;12.15;7.25;;;;;;;14.60;99.07;99078.84;1728615;83;21575;-73
2022/08/29 03:23:04;;;;;;;9.13;7.05;;;;;;;14.56;98.75;99077.39;1728754;83;20976;-73
2022/08/29 03:25:31;;;;;;;13.45;7.25;;;;;;;14.56;98.75;99077.39;1728616;83;21013;-74
2022/08/29 03:27:58;;;;;;;11.45;7.50;;;;;;;14.56;98.93;99070.84;1728635;83;21330;-74
2022/08/29 03:30:25;;;;;;;12.40;7.90;;;;;;;14.59;99.08;99076.70;1728618;83;20997;-74
2022/08/29 03:32:52;;;;;;;21.50;8.13;;;;;;;14.66;99.24;99071.92;1728671;83;21005;-74
2022/08/29 03:35:18;;;;;;;11.40;7.92;;;;;;;14.91;99.95;99079.03;1728597;83;21592;-74
2022/08/29 03:37:45;;;;;;;10.95;7.58;;;;;;;14.91;99.95;99079.03;1728654;81;21017;-74
2022/08/29 03:40:12;;;;;;;10.65;6.65;;;;;;;15.07;99.98;99071.37;1728583;82;21124;-74
2022/08/29 03:42:39;;;;;;;14.53;8.45;;;;;;;15.27;99.74;99078.37;1728561;83;21457;-74
2022/08/29 03:45:08;;;;;;;17.02;9.00;;;;;;;15.47;99.59;99079.19;1728704;83;20961;-74
2022/08/29 03:47:36;;;;;;;17.62;8.20;;;;;;;15.94;98.48;99081.69;1728816;83;20977;-74
2022/08/29 03:50:03;;;;;;;13.90;8.15;;;;;;;15.94;98.48;99081.69;1731039;81;21009;-74
2022/08/29 03:52:30;;;;;;;10.88;7.53;;;;;;;16.19;97.25;99082.46;1746256;82;21240;-74
2022/08/29 03:54:56;;;;;;;13.83;8.63;;;;;;;16.47;95.82;99086.60;1746085;82;21596;-74
2022/08/29 03:57:23;;;;;;;16.10;9.40;;;;;;;16.76;94.76;99093.73;1746517;82;20957;-74
2022/08/29 03:59:49;;;;;;;13.93;8.43;;;;;;;17.07;93.50;99088.84;1746109;82;20969;-74
2022/08/29 04:02:17;;;;;;;17.60;8.78;;;;;;;17.36;92.69;99091.47;1746181;82;20937;-74
2022/08/29 04:07:30;;;;;;;12.50;9.45;;;;;;;18.05;88.92;99090.14;1746276;82;20850;-74
2022/08/29 04:09:58;;;;;;;14.85;9.78;;;;;;;18.40;87.47;99091.30;1724902;82;20933;-74
2022/08/29 04:12:24;;;;;;;13.58;10.13;;;;;;;18.67;86.03;99091.77;1746188;82;21462;-74
2022/08/29 04:14:51;;;;;;;14.85;11.90;;;;;;;18.78;84.97;99086.97;1746147;82;21017;-74
2022/08/29 04:17:18;;;;;;;21.17;13.53;;;;;;;18.84;83.98;99093.03;1746165;82;21515;-75
2022/08/29 04:19:46;;;;;;;23.22;15.03;;;;;;;18.83;83.64;99092.20;1723821;82;20969;-74
2022/08/29 04:22:14;;;;;;;13.98;9.65;;;;;;;19.00;83.20;99089.49;1746174;82;21397;-75
2022/08/29 04:24:41;;;;;;;15.98;11.18;;;;;;;19.27;81.76;99087.70;1746082;82;21460;-74
2022/08/29 04:27:07;;;;;;;32.48;12.58;;;;;;;19.60;79.55;99088.86;1746136;82;20973;-74
2022/08/29 04:29:34;;;;;;;17.73;10.40;;;;;;;19.93;78.14;99084.33;1746152;82;21568;-75
2022/08/29 04:32:01;;;;;;;14.43;8.78;;;;;;;20.26;75.92;99081.88;1746166;82;21024;-75
2022/08/29 04:34:27;;;;;;;17.98;8.58;;;;;;;20.59;74.06;99083.38;1746186;82;21622;-75
2022/08/29 04:36:54;;;;;;;18.95;9.70;;;;;;;20.91;72.63;99081.34;1746095;82;21418;-75
2022/08/29 04:39:23;;;;;;;12.75;8.65;;;;;;;21.20;71.40;99083.17;1746156;82;20934;-75
2022/08/29 04:41:51;;;;;;;14.80;9.15;;;;;;;21.47;69.94;99088.58;1746133;82;20958;-74
2022/08/29 04:44:17;;;;;;;12.00;8.53;;;;;;;21.76;68.43;99087.21;1746070;82;21021;-74
2022/08/29 04:46:44;;;;;;;19.00;8.55;;;;;;;22.03;67.17;99086.44;1746170;82;20925;-74
2022/08/29 04:49:10;;;;;;;19.98;10.60;;;;;;;22.29;66.69;99094.56;1746100;82;21001;-74
2022/08/29 04:51:39;;;;;;;18.52;10.10;;;;;;;22.56;65.77;99085.28;1746077;81;21433;-75
2022/08/29 04:54:05;;;;;;;21.68;11.88;;;;;;;22.77;65.17;99085.50;1746389;82;21159;-74
2022/08/29 04:56:32;;;;;;;29.05;12.07;;;;;;;22.99;64.48;99091.20;1746094;82;21005;-74
2022/08/29 04:58:59;;;;;;;17.12;10.60;;;;;;;23.20;63.85;99092.22;1746084;82;20969;-75
2022/08/29 05:01:30;;;;;;;34.13;12.90;;;;;;;23.40;63.35;99086.73;1746876;82;20976;-74
2022/08/29 05:03:57;;;;;;;30.37;12.00;;;;;;;23.56;62.51;99094.87;1722955;82;20893;-76
2022/08/29 05:06:28;;;;;;;21.73;10.05;;;;;;;23.70;62.04;99089.83;1743903;82;21497;-76
2022/08/29 05:08:57;;;;;;;12.10;9.60;;;;;;;23.81;61.32;99083.91;1735103;82;20991;-75
2022/08/29 05:11:25;;;;;;;20.72;9.78;;;;;;;23.84;61.01;99079.61;1735833;82;21073;-74
2022/08/29 05:13:52;;;;;;;12.95;9.45;;;;;;;23.79;61.51;99080.07;1697904;84;21504;-74
2022/08/29 05:16:19;;;;;;;27.40;12.30;;;;;;;23.78;61.60;99084.24;1735300;82;21123;-74
2022/08/29 05:18:46;;;;;;;20.17;9.65;;;;;;;23.76;62.07;99091.03;1734665;82;21137;-75
2022/08/29 05:21:14;;;;;;;48.52;15.60;;;;;;;23.78;62.54;99093.54;1696934;83;21408;-74
2022/08/29 05:23:40;;;;;;;30.68;12.10;;;;;;;23.78;62.68;99085.05;1678164;84;21524;-74
2022/08/29 05:26:08;;;;;;;28.65;12.13;;;;;;;23.78;62.38;99092.21;1734685;82;21623;-75
2022/08/29 05:28:36;;;;;;;29.92;11.53;;;;;;;23.74;62.41;99089.52;1735690;82;21052;-75
2022/08/29 05:31:03;;;;;;;19.77;11.38;;;;;;;23.68;62.26;99090.97;1735871;82;21559;-75
2022/08/29 05:33:29;;;;;;;19.20;12.07;;;;;;;23.55;62.25;99089.23;1735894;82;21030;-75
2022/08/29 05:35:57;;;;;;;19.05;10.65;;;;;;;23.43;62.52;99093.91;1735922;82;21061;-75
2022/08/29 05:38:24;;;;;;;21.15;12.30;;;;;;;23.33;63.78;99099.32;1735764;82;21423;-77
2022/08/29 05:40:52;;;;;;;24.45;12.78;;;;;;;23.25;65.89;99093.93;1714336;82;37677;-68
2022/08/29 05:43:19;;;;;;;21.65;12.43;;;;;;;23.19;66.61;99094.53;1725644;82;21139;-68
2022/08/29 05:45:45;;;;;;;21.65;11.03;;;;;;;23.14;65.83;99091.53;1719128;83;21097;-67
2022/08/29 05:48:13;;;;;;;21.48;10.98;;;;;;;23.13;65.16;99091.67;1719319;83;21597;-67
2022/08/29 05:50:43;;;;;;;25.10;12.15;;;;;;;23.10;64.05;99085.34;1667755;83;21073;-66
2022/08/29 05:53:11;;;;;;;16.95;10.45;;;;;;;23.06;63.76;99091.44;1733800;81;20964;-68
2022/08/29 05:55:42;;;;;;;16.20;11.10;;;;;;;23.01;64.40;99093.22;1733933;82;21642;-67
2022/08/29 05:58:09;;;;;;;18.20;11.15;;;;;;;23.01;67.34;99093.22;1742795;81;21502;-66
2022/08/29 06:00:41;;;;;;;15.38;9.70;;;;;;;22.99;68.48;99092.53;1742698;82;21033;-67
2022/08/29 06:03:09;;;;;;;15.18;10.48;;;;;;;22.98;68.62;99094.84;1748761;81;21028;-66
2022/08/29 06:05:40;;;;;;;16.32;9.58;;;;;;;22.97;69.14;99093.20;1751702;81;21035;-67
2022/08/29 06:08:07;;;;;;;18.35;9.43;;;;;;;22.98;67.71;99100.66;1751628;81;21122;-69
2022/08/29 06:10:40;;;;;;;16.55;8.73;;;;;;;23.06;66.66;99109.17;1740251;81;21148;-68
2022/08/29 06:13:07;;;;;;;22.35;8.80;;;;;;;23.12;65.09;99104.11;1737063;81;26823;-70
2022/08/29 06:15:34;;;;;;;15.55;8.53;;;;;;;23.22;64.28;99104.84;1741568;81;21044;-68
2022/08/29 06:18:03;;;;;;;20.97;8.90;;;;;;;23.33;63.98;99100.64;1733304;81;21489;-68
2022/08/29 06:20:30;;;;;;;13.83;8.05;;;;;;;23.46;63.46;99103.38;1740417;81;21182;-68
2022/08/29 06:22:57;;;;;;;12.65;8.43;;;;;;;23.59;63.07;99107.81;1744109;81;21102;-68
2022/08/29 06:25:24;;;;;;;15.85;8.28;;;;;;;23.68;62.50;99106.91;1738533;81;21703;-67
2022/08/29 06:27:53;;;;;;;11.73;8.23;;;;;;;23.80;62.22;99111.45;1741565;81;21025;-68
2022/08/29 06:30:20;;;;;;;16.32;8.33;;;;;;;23.91;62.08;99113.86;1746556;81;21079;-69
2022/08/29 06:32:47;;;;;;;12.40;8.25;;;;;;;24.04;61.77;99117.75;1715008;81;21146;-68
2022/08/29 06:35:13;;;;;;;12.65;8.70;;;;;;;24.17;61.13;99117.83;1733781;81;21065;-67
2022/08/29 06:37:41;;;;;;;13.22;8.65;;;;;;;24.29;60.80;99125.39;1733623;82;21048;-69
2022/08/29 06:40:09;;;;;;;12.98;8.88;;;;;;;24.41;60.58;99128.58;1737766;81;20978;-69
2022/08/29 06:42:36;;;;;;;14.38;8.70;;;;;;;24.54;59.93;99131.65;1737593;82;21131;-68
2022/08/29 06:45:06;;;;;;;16.55;8.73;;;;;;;24.64;59.59;99132.33;1737667;82;21252;-69
2022/08/29 06:47:35;;;;;;;11.93;8.48;;;;;;;24.72;59.45;99133.70;1737462;82;21537;-69
2022/08/29 06:50:02;;;;;;;14.18;7.70;;;;;;;24.83;59.34;99133.88;1737473;82;21077;-68
2022/08/29 06:52:29;;;;;;;23.40;9.70;;;;;;;24.95;59.68;99137.95;1733602;81;21023;-68
2022/08/29 06:54:56;;;;;;;13.83;8.73;;;;;;;25.07;59.48;99135.80;1742298;82;21100;-68
2022/08/29 06:57:23;;;;;;;18.42;8.60;;;;;;;25.21;59.27;99130.31;1743377;82;21789;-68
2022/08/29 06:59:50;;;;;;;11.33;8.80;;;;;;;25.33;58.94;99131.68;1744671;82;21006;-70
2022/08/29 07:02:17;;;;;;;17.02;9.03;;;;;;;25.46;58.48;99132.50;1745027;82;21109;-68
2022/08/29 07:04:43;;;;;;;15.43;8.18;;;;;;;25.57;57.32;99128.19;1738927;82;21085;-69
2022/08/29 07:07:10;;;;;;;17.40;8.48;;;;;;;25.67;56.69;99128.37;1737469;82;21061;-68
2022/08/29 07:09:37;;;;;;;14.25;8.43;;;;;;;25.78;56.21;99129.84;1737125;82;21157;-69
2022/08/29 07:12:05;;;;;;;21.23;9.80;;;;;;;25.86;55.94;99129.84;1736968;82;21096;-67
2022/08/29 07:14:32;;;;;;;14.50;9.30;;;;;;;25.96;55.55;99130.50;1737593;82;21621;-67
2022/08/29 07:17:01;;;;;;;18.30;9.43;;;;;;;26.07;54.74;99131.96;1737189;82;21037;-68
2022/08/29 07:19:28;;;;;;;17.62;8.73;;;;;;;26.17;54.78;99122.45;1737266;82;21044;-68
2022/08/29 07:21:59;;;;;;;9.90;8.00;;;;;;;26.28;54.08;99120.23;1742200;82;21499;-71
2022/08/29 07:24:26;;;;;;;12.30;9.10;;;;;;;26.38;52.90;99123.55;1743821;82;21051;-67
2022/08/29 07:27:03;;;;;;;17.25;8.10;;;;;;;26.52;51.06;99127.84;1744065;82;20995;-69
2022/08/29 07:29:30;;;;;;;15.60;7.78;;;;;;;26.64;50.21;99123.27;1746553;81;21135;-66
2022/08/29 07:31:57;;;;;;;12.25;7.60;;;;;;;26.79;48.79;99122.02;1676960;85;21156;-67
2022/08/29 07:34:24;;;;;;;9.58;6.90;;;;;;;26.91;48.37;99127.80;1694702;84;21213;-67
2022/08/29 07:36:51;;;;;;;12.07;7.92;;;;;;;27.03;46.53;99125.91;1742289;81;21493;-68
2022/08/29 07:39:18;;;;;;;12.00;6.95;;;;;;;27.16;46.08;99132.52;1715687;81;21609;-70
2022/08/29 07:41:45;;;;;;;14.25;7.17;;;;;;;27.26;45.47;99135.27;1745228;81;21084;-67
2022/08/29 07:44:12;;;;;;;8.00;7.17;;;;;;;27.38;45.16;99136.50;1745315;82;22231;-68
2022/08/29 07:46:39;;;;;;;9.20;7.28;;;;;;;27.50;44.38;99134.76;1738928;81;21418;-67
2022/08/29 07:49:06;;;;;;;11.88;7.35;;;;;;;27.59;44.40;99137.70;1737545;81;21014;-69
2022/08/29 07:51:33;;;;;;;9.85;6.53;;;;;;;27.67;44.47;99130.45;1737364;82;21018;-67
2022/08/29 07:54:00;;;;;;;12.25;7.53;;;;;;;27.76;44.17;99132.56;1736972;82;21081;-66
2022/08/29 07:56:30;;;;;;;10.95;7.90;;;;;;;27.85;43.38;99137.30;1737513;82;21053;-67
2022/08/29 07:58:57;;;;;;;9.80;7.12;;;;;;;27.93;42.73;99129.22;1737241;81;21120;-69
2022/08/29 08:01:25;;;;;;;15.90;7.75;;;;;;;28.01;42.72;99131.78;1737137;81;20968;-68
2022/08/29 08:03:52;;;;;;;10.38;7.05;;;;;;;28.10;41.92;99135.55;1739760;81;20983;-68
2022/08/29 08:06:20;;;;;;;8.98;7.20;;;;;;;28.17;42.22;99135.65;1744445;82;21051;-72
2022/08/29 08:08:49;;;;;;;10.10;7.70;;;;;;;28.23;40.96;99133.58;1744250;82;21487;-67
2022/08/29 08:11:16;;;;;;;8.83;7.15;;;;;;;28.27;40.99;99136.72;1743874;82;21147;-67
2022/08/29 08:13:44;;;;;;;9.88;8.28;;;;;;;28.32;40.82;99146.37;1743917;82;21090;-69
2022/08/29 08:16:19;;;;;;;12.73;7.95;;;;;;;28.38;40.58;99146.95;1744215;82;22200;-68
2022/08/29 08:18:45;;;;;;;10.90;8.08;;;;;;;28.46;40.17;99144.19;1744256;82;20999;-67
2022/08/29 08:21:12;;;;;;;14.55;7.87;;;;;;;28.54;40.27;99137.91;1743933;82;21078;-69
2022/08/29 08:23:39;;;;;;;9.38;7.67;;;;;;;28.63;39.83;99144.80;1743808;81;21721;-68
2022/08/29 08:26:08;;;;;;;9.50;8.23;;;;;;;28.70;39.40;99147.06;1743438;81;20994;-67
2022/08/29 08:28:35;;;;;;;14.00;8.33;;;;;;;28.74;39.39;99145.68;1743934;82;21021;-67
2022/08/29 08:31:04;;;;;;;8.35;6.87;;;;;;;28.79;39.19;99141.91;1744729;81;21047;-67
2022/08/29 08:33:31;;;;;;;10.45;7.33;;;;;;;28.84;38.88;99144.06;1749581;81;21037;-68
2022/08/29 08:35:58;;;;;;;8.93;7.22;;;;;;;28.88;38.84;99147.52;1730443;81;21156;-67
2022/08/29 08:38:25;;;;;;;9.93;6.72;;;;;;;28.92;38.74;99139.44;1730200;82;21488;-68
2022/08/29 08:41:09;;;;;;;12.00;7.17;;;;;;;28.95;38.86;99143.59;1743988;81;21071;-68
2022/08/29 08:43:53;;;;;;;14.80;7.35;;;;;;;29.00;38.78;99145.16;1711381;82;22101;-71
2022/08/29 08:46:24;;;;;;;;;;;;;;;29.06;38.36;99138.55;1743088;82;21008;-69
2022/08/29 08:48:51;;;;;;;11.35;7.70;;;;;;;29.14;38.82;99147.81;1744532;82;21831;-67
2022/08/29 08:51:22;;;;;;;10.78;7.10;;;;;;;29.21;37.67;99145.69;1742908;81;21158;-68
2022/08/29 08:53:52;;;;;;;10.78;6.25;;;;;;;29.24;37.60;99146.66;1737257;82;21096;-67
2022/08/29 08:56:41;;;;;;;11.18;6.95;;;;;;;29.26;38.12;99142.77;1741158;82;21092;-67
2022/08/29 08:59:22;;;;;;;13.40;6.72;;;;;;;29.29;37.76;99149.09;1727201;82;21092;-67
2022/08/29 09:02:11;;;;;;;8.28;6.83;;;;;;;29.32;37.46;99150.05;1720310;83;21308;-67
2022/08/29 09:05:11;;;;;;;12.37;6.17;;;;;;;29.32;36.83;99149.22;1722400;83;21044;-67
2022/08/29 09:08:07;;;;;;;11.78;6.80;;;;;;;29.32;37.09;99143.86;1723354;83;21037;-69
2022/08/29 09:10:48;;;;;;;13.70;6.50;;;;;;;29.41;37.61;99145.41;1722258;83;21033;-66
2022/08/29 09:13:34;;;;;;;10.28;7.47;;;;;;;29.48;37.69;99143.12;1720039;83;21092;-67
2022/08/29 09:16:07;;;;;;;12.20;6.05;;;;;;;29.57;37.75;99143.83;1721422;83;21163;-68
2022/08/29 09:18:39;;;;;;;8.90;5.90;;;;;;;29.65;37.31;99144.18;1722825;83;21044;-67
2022/08/29 09:21:16;;;;;;;12.23;6.50;;;;;;;29.66;36.82;99145.33;1722608;83;21005;-69
2022/08/29 09:23:52;;;;;;;10.78;6.35;;;;;;;29.66;37.27;99145.33;1721981;83;21044;-68
2022/08/29 09:26:20;;;;;;;8.70;5.92;;;;;;;29.70;37.71;99138.56;1722342;83;21572;-69
2022/08/29 09:28:47;;;;;;;8.30;5.65;;;;;;;29.79;37.06;99138.72;1721917;82;21161;-67
2022/08/29 09:31:21;;;;;;;7.50;5.53;;;;;;;29.85;36.67;99137.12;1721766;81;21012;-71
2022/08/29 09:33:57;;;;;;;9.13;5.53;;;;;;;29.87;35.90;99138.27;1721708;83;21900;-67
2022/08/29 09:36:41;;;;;;;16.50;6.60;;;;;;;29.86;35.85;99144.14;1721479;83;21104;-67
2022/08/29 09:39:30;;;;;;;9.58;5.37;;;;;;;29.84;35.95;99140.83;1685677;85;22233;-69
2022/08/29 09:42:01;;;;;;;11.55;6.45;;;;;;;29.86;35.93;99139.29;1721331;83;21362;-68
2022/08/29 09:44:30;;;;;;;14.73;6.17;;;;;;;29.88;35.93;99142.61;1719440;83;21468;-66
2022/08/29 09:47:11;;;;;;;6.83;5.45;;;;;;;29.90;36.37;99144.08;1722026;83;21193;-67
2022/08/29 09:49:41;;;;;;;11.15;5.33;;;;;;;29.92;35.88;99138.00;1722154;83;21044;-68
2022/08/29 09:52:15;;;;;;;10.30;4.95;;;;;;;29.93;35.60;99134.30;1721974;83;21462;-67
2022/08/29 09:54:43;;;;;;;7.58;4.67;;;;;;;29.96;35.27;99136.59;1721352;83;21166;-66
2022/08/29 09:57:23;;;;;;;10.10;5.97;;;;;;;29.99;35.66;99134.05;1721954;83;21549;-68
2022/08/29 10:00:11;;;;;;;12.98;5.45;;;;;;;30.03;35.08;99137.99;1722043;83;21123;-66
2022/08/29 10:02:46;;;;;;;10.18;5.78;;;;;;;30.06;35.36;99135.75;1722379;83;21088;-67
2022/08/29 10:05:40;;;;;;;10.55;5.60;;;;;;;30.12;34.92;99137.66;1721878;83;21044;-67
2022/08/29 10:08:36;;;;;;;7.15;5.05;;;;;;;30.20;35.22;99138.50;1722299;83;21234;-68
2022/08/29 10:11:16;;;;;;;8.48;5.75;;;;;;;30.24;34.83;99139.78;1722327;83;20998;-67
2022/08/29 10:13:55;;;;;;;7.03;4.90;;;;;;;30.23;35.03;99137.60;1722124;83;21053;-67
2022/08/29 10:16:39;;;;;;;8.05;5.28;;;;;;;30.30;34.54;99132.28;1722223;83;21088;-66
2022/08/29 10:19:26;;;;;;;10.60;5.75;;;;;;;30.39;34.44;99134.59;1651686;83;21518;-68
2022/08/29 10:22:24;;;;;;;12.80;5.90;;;;;;;30.48;34.40;99129.90;1722240;83;21133;-68
2022/08/29 10:25:17;;;;;;;10.38;5.55;;;;;;;30.49;34.34;99125.67;1721609;83;21088;-66
2022/08/29 10:27:59;;;;;;;6.33;5.20;;;;;;;30.55;34.08;99125.43;1721777;83;21588;-67
2022/08/29 10:30:31;;;;;;;9.83;5.45;;;;;;;30.57;32.90;99127.41;1712597;83;21037;-67
2022/08/29 10:33:20;;;;;;;13.43;5.50;;;;;;;30.58;32.50;99129.55;1722423;83;21088;-67
2022/08/29 10:35:57;;;;;;;13.28;5.00;;;;;;;30.57;32.97;99130.09;1722027;83;21268;-67
2022/08/29 10:38:47;;;;;;;9.25;4.97;;;;;;;30.58;33.30;99127.69;1716916;83;21088;-67
2022/08/29 10:41:40;;;;;;;18.27;5.75;;;;;;;30.61;33.46;99119.75;1692893;83;21517;-68
2022/08/29 10:44:25;;;;;;;11.63;4.83;;;;;;;30.62;33.68;99120.89;1718681;82;21104;-67
2022/08/29 10:47:17;;;;;;;10.43;5.28;;;;;;;30.67;33.72;99115.76;1721908;83;22223;-69
2022/08/29 10:49:56;;;;;;;11.90;5.25;;;;;;;30.71;34.35;99122.39;1717334;83;21241;-67
2022/08/29 10:52:31;;;;;;;12.50;5.85;;;;;;;30.72;34.21;99121.88;1693287;83;21048;-68
2022/08/29 10:55:37;;;;;;;10.25;5.45;;;;;;;30.72;34.17;99120.02;1721833;83;21040;-67
2022/08/29 10:58:17;;;;;;;12.13;5.83;;;;;;;30.75;34.07;99117.45;1721774;83;21033;-68
2022/08/29 11:01:06;;;;;;;9.13;5.47;;;;;;;30.80;33.69;99119.83;1722071;83;21100;-68
2022/08/29 11:03:51;;;;;;;10.43;5.60;;;;;;;30.82;33.57;99115.08;1714873;83;21287;-66
2022/08/29 11:06:30;;;;;;;8.70;5.37;;;;;;;30.80;33.69;99120.34;1716485;83;21144;-68
2022/08/29 11:09:09;;;;;;;10.28;4.80;;;;;;;30.76;33.60;99119.94;1722164;83;21600;-67
2022/08/29 11:11:36;;;;;;;15.15;5.40;;;;;;;30.81;33.66;99121.99;1721425;83;21091;-67
2022/08/29 11:14:11;;;;;;;20.88;6.40;;;;;;;30.89;33.43;99114.28;1693673;83;21585;-68
2022/08/29 11:16:46;;;;;;;12.13;5.12;;;;;;;30.93;33.25;99114.20;1721609;83;21144;-68
2022/08/29 11:19:46;;;;;;;8.20;5.20;;;;;;;31.00;33.56;99116.36;1721674;83;21009;-71
2022/08/29 11:22:19;;;;;;;11.40;5.75;;;;;;;31.10;33.48;99114.12;1723244;83;20993;-69
2022/08/29 11:25:09;;;;;;;12.23;5.87;;;;;;;31.19;32.88;99120.97;1721982;83;20954;-69
2022/08/29 11:27:56;;;;;;;10.65;5.85;;;;;;;31.19;32.96;99112.91;1689325;84;21049;-68
2022/08/29 11:30:37;;;;;;;11.95;5.85;;;;;;;31.23;32.90;99112.82;1716713;83;21438;-68
2022/08/29 11:33:42;;;;;;;10.82;5.40;;;;;;;31.29;33.38;99109.33;1717283;83;21029;-70
2022/08/29 11:36:46;;;;;;;7.85;4.85;;;;;;;31.37;32.59;99111.83;1721832;83;21045;-72
2022/08/29 11:39:44;;;;;;;10.25;5.25;;;;;;;31.35;32.67;99110.38;1721780;83;21071;-70
2022/08/29 11:42:11;;;;;;;11.73;5.10;;;;;;;31.35;32.75;99107.69;1721679;83;21104;-69
2022/08/29 11:44:49;;;;;;;10.35;4.65;;;;;;;31.43;32.61;99102.09;1728027;81;21586;-69
2022/08/29 11:47:38;;;;;;;8.58;5.20;;;;;;;31.49;32.69;99103.96;1752110;81;21470;-69
2022/08/29 11:50:36;;;;;;;10.50;5.70;;;;;;;31.52;32.49;99102.20;1749915;81;21054;-69